sensor_id;sensor_type;location;lat;lon;timestamp;temperature;humidity
42965;DHT22;28604;51.204;22.552;2023-04-06T00:01:53;1.90;69.10
42965;DHT22;28604;51.204;22.552;2023-04-06T00:04:19;1.90;68.10
42965;DHT22;28604;51.204;22.552;2023-04-06T00:06:45;1.90;69.80
42965;DHT22;28604;51.204;22.552;2023-04-06T00:09:11;1.90;68.90
42965;DHT22;28604;51.204;22.552;2023-04-06T00:11:37;1.90;68.20
42965;DHT22;28604;51.204;22.552;2023-04-06T00:14:03;1.90;68.10
42965;DHT22;28604;51.204;22.552;2023-04-06T00:16:29;1.90;68.70
42965;DHT22;28604;51.204;22.552;2023-04-06T00:18:55;1.90;69.70
42965;DHT22;28604;51.204;22.552;2023-04-06T00:21:21;1.90;68.70
42965;DHT22;28604;51.204;22.552;2023-04-06T00:23:47;1.90;68.70
42965;DHT22;28604;51.204;22.552;2023-04-06T00:26:13;1.90;68.60
42965;DHT22;28604;51.204;22.552;2023-04-06T00:28:43;1.90;68.30
42965;DHT22;28604;51.204;22.552;2023-04-06T00:31:09;1.90;69.20
42965;DHT22;28604;51.204;22.552;2023-04-06T00:33:36;1.90;68.10
42965;DHT22;28604;51.204;22.552;2023-04-06T00:36:01;1.90;68.50
42965;DHT22;28604;51.204;22.552;2023-04-06T00:38:27;1.80;70.70
42965;DHT22;28604;51.204;22.552;2023-04-06T00:40:53;1.80;68.90
42965;DHT22;28604;51.204;22.552;2023-04-06T00:43:19;1.90;68.20
42965;DHT22;28604;51.204;22.552;2023-04-06T00:45:45;1.80;68.50
42965;DHT22;28604;51.204;22.552;2023-04-06T00:48:11;1.80;69.70
42965;DHT22;28604;51.204;22.552;2023-04-06T00:50:37;1.80;68.70
42965;DHT22;28604;51.204;22.552;2023-04-06T00:53:03;1.80;69.00
42965;DHT22;28604;51.204;22.552;2023-04-06T00:55:30;1.80;69.60
42965;DHT22;28604;51.204;22.552;2023-04-06T00:57:58;1.80;69.90
42965;DHT22;28604;51.204;22.552;2023-04-06T01:00:26;1.80;70.50
42965;DHT22;28604;51.204;22.552;2023-04-06T01:02:57;1.70;70.60
42965;DHT22;28604;51.204;22.552;2023-04-06T01:05:35;1.80;69.20
42965;DHT22;28604;51.204;22.552;2023-04-06T01:08:07;1.80;68.80
42965;DHT22;28604;51.204;22.552;2023-04-06T01:10:33;1.80;68.90
42965;DHT22;28604;51.204;22.552;2023-04-06T01:13:08;1.90;70.00
42965;DHT22;28604;51.204;22.552;2023-04-06T01:15:46;1.80;70.60
42965;DHT22;28604;51.204;22.552;2023-04-06T01:18:17;1.80;71.80
42965;DHT22;28604;51.204;22.552;2023-04-06T01:20:52;1.80;69.90
42965;DHT22;28604;51.204;22.552;2023-04-06T01:23:19;1.90;69.60
42965;DHT22;28604;51.204;22.552;2023-04-06T01:25:46;1.80;71.20
42965;DHT22;28604;51.204;22.552;2023-04-06T01:28:12;1.90;69.90
42965;DHT22;28604;51.204;22.552;2023-04-06T01:30:51;1.90;69.80
42965;DHT22;28604;51.204;22.552;2023-04-06T01:33:36;1.90;70.20
42965;DHT22;28604;51.204;22.552;2023-04-06T01:36:06;1.90;70.50
42965;DHT22;28604;51.204;22.552;2023-04-06T01:38:32;1.90;69.50
42965;DHT22;28604;51.204;22.552;2023-04-06T01:40:59;2.00;69.40
42965;DHT22;28604;51.204;22.552;2023-04-06T01:43:30;1.90;69.50
42965;DHT22;28604;51.204;22.552;2023-04-06T01:46:08;2.00;69.30
42965;DHT22;28604;51.204;22.552;2023-04-06T01:48:38;2.00;70.20
42965;DHT22;28604;51.204;22.552;2023-04-06T01:51:14;2.00;69.40
42965;DHT22;28604;51.204;22.552;2023-04-06T01:53:47;1.90;69.50
42965;DHT22;28604;51.204;22.552;2023-04-06T01:56:14;2.00;70.30
42965;DHT22;28604;51.204;22.552;2023-04-06T01:58:47;1.90;69.80
42965;DHT22;28604;51.204;22.552;2023-04-06T02:01:16;1.90;70.20
42965;DHT22;28604;51.204;22.552;2023-04-06T02:03:50;1.90;70.70
42965;DHT22;28604;51.204;22.552;2023-04-06T02:06:16;2.00;70.30
42965;DHT22;28604;51.204;22.552;2023-04-06T02:08:42;2.00;70.20
42965;DHT22;28604;51.204;22.552;2023-04-06T02:11:08;2.00;69.90
42965;DHT22;28604;51.204;22.552;2023-04-06T02:13:42;2.00;69.90
42965;DHT22;28604;51.204;22.552;2023-04-06T02:16:09;1.90;71.60
42965;DHT22;28604;51.204;22.552;2023-04-06T02:18:35;1.90;71.60
42965;DHT22;28604;51.204;22.552;2023-04-06T02:21:01;1.90;71.00
42965;DHT22;28604;51.204;22.552;2023-04-06T02:23:28;1.90;71.70
42965;DHT22;28604;51.204;22.552;2023-04-06T02:25:56;1.90;70.60
42965;DHT22;28604;51.204;22.552;2023-04-06T02:28:22;1.90;72.50
42965;DHT22;28604;51.204;22.552;2023-04-06T02:30:48;1.90;71.60
42965;DHT22;28604;51.204;22.552;2023-04-06T02:33:14;1.90;70.80
42965;DHT22;28604;51.204;22.552;2023-04-06T02:35:44;1.90;70.40
42965;DHT22;28604;51.204;22.552;2023-04-06T02:38:11;2.00;70.20
42965;DHT22;28604;51.204;22.552;2023-04-06T02:40:37;1.90;72.60
42965;DHT22;28604;51.204;22.552;2023-04-06T02:43:36;1.90;72.50
42965;DHT22;28604;51.204;22.552;2023-04-06T02:46:12;1.90;71.90
42965;DHT22;28604;51.204;22.552;2023-04-06T02:48:39;1.90;72.10
42965;DHT22;28604;51.204;22.552;2023-04-06T02:51:05;1.80;72.20
42965;DHT22;28604;51.204;22.552;2023-04-06T02:53:32;1.90;72.40
42965;DHT22;28604;51.204;22.552;2023-04-06T02:55:58;1.80;73.60
42965;DHT22;28604;51.204;22.552;2023-04-06T02:58:31;1.90;72.00
42965;DHT22;28604;51.204;22.552;2023-04-06T03:00:59;1.90;72.90
42965;DHT22;28604;51.204;22.552;2023-04-06T03:03:25;2.00;72.40
42965;DHT22;28604;51.204;22.552;2023-04-06T03:05:51;1.90;73.30
42965;DHT22;28604;51.204;22.552;2023-04-06T03:08:24;1.90;73.10
42965;DHT22;28604;51.204;22.552;2023-04-06T03:10:50;1.90;73.70
42965;DHT22;28604;51.204;22.552;2023-04-06T03:13:18;1.80;74.40
42965;DHT22;28604;51.204;22.552;2023-04-06T03:15:47;1.90;72.60
42965;DHT22;28604;51.204;22.552;2023-04-06T03:18:24;1.90;72.90
42965;DHT22;28604;51.204;22.552;2023-04-06T03:20:52;1.80;74.40
42965;DHT22;28604;51.204;22.552;2023-04-06T03:23:24;1.90;73.10
42965;DHT22;28604;51.204;22.552;2023-04-06T03:25:55;1.90;74.90
42965;DHT22;28604;51.204;22.552;2023-04-06T03:28:21;1.90;74.60
42965;DHT22;28604;51.204;22.552;2023-04-06T03:31:00;1.90;74.10
42965;DHT22;28604;51.204;22.552;2023-04-06T03:33:55;1.90;75.50
42965;DHT22;28604;51.204;22.552;2023-04-06T03:36:25;1.90;74.40
42965;DHT22;28604;51.204;22.552;2023-04-06T03:38:54;1.90;74.70
42965;DHT22;28604;51.204;22.552;2023-04-06T03:41:20;1.90;75.60
42965;DHT22;28604;51.204;22.552;2023-04-06T03:43:55;1.80;77.20
42965;DHT22;28604;51.204;22.552;2023-04-06T03:46:21;1.80;77.30
42965;DHT22;28604;51.204;22.552;2023-04-06T03:48:51;1.90;78.40
42965;DHT22;28604;51.204;22.552;2023-04-06T03:51:19;1.80;77.90
42965;DHT22;28604;51.204;22.552;2023-04-06T03:53:47;1.90;76.40
42965;DHT22;28604;51.204;22.552;2023-04-06T03:56:13;1.80;77.10
42965;DHT22;28604;51.204;22.552;2023-04-06T03:58:39;1.80;77.00
42965;DHT22;28604;51.204;22.552;2023-04-06T04:01:05;1.80;79.10
42965;DHT22;28604;51.204;22.552;2023-04-06T04:03:31;1.80;78.00
42965;DHT22;28604;51.204;22.552;2023-04-06T04:05:57;1.70;80.30
42965;DHT22;28604;51.204;22.552;2023-04-06T04:08:24;1.70;78.40
42965;DHT22;28604;51.204;22.552;2023-04-06T04:10:50;1.80;77.60
42965;DHT22;28604;51.204;22.552;2023-04-06T04:13:16;1.70;78.40
42965;DHT22;28604;51.204;22.552;2023-04-06T04:15:46;1.70;78.00
42965;DHT22;28604;51.204;22.552;2023-04-06T04:18:13;1.70;78.20
42965;DHT22;28604;51.204;22.552;2023-04-06T04:20:40;1.70;78.70
42965;DHT22;28604;51.204;22.552;2023-04-06T04:23:07;1.70;78.40
42965;DHT22;28604;51.204;22.552;2023-04-06T04:25:34;1.60;79.40
42965;DHT22;28604;51.204;22.552;2023-04-06T04:28:00;1.60;78.50
42965;DHT22;28604;51.204;22.552;2023-04-06T04:30:27;1.70;79.50
42965;DHT22;28604;51.204;22.552;2023-04-06T04:32:53;1.60;80.00
42965;DHT22;28604;51.204;22.552;2023-04-06T04:35:22;1.60;79.00
42965;DHT22;28604;51.204;22.552;2023-04-06T04:37:49;1.60;80.60
42965;DHT22;28604;51.204;22.552;2023-04-06T04:40:15;1.70;79.50
42965;DHT22;28604;51.204;22.552;2023-04-06T04:42:49;1.60;79.90
42965;DHT22;28604;51.204;22.552;2023-04-06T04:45:23;1.60;81.20
42965;DHT22;28604;51.204;22.552;2023-04-06T04:47:49;1.60;79.90
42965;DHT22;28604;51.204;22.552;2023-04-06T04:50:17;1.70;80.10
42965;DHT22;28604;51.204;22.552;2023-04-06T04:52:45;1.60;81.10
42965;DHT22;28604;51.204;22.552;2023-04-06T04:55:16;1.60;81.30
42965;DHT22;28604;51.204;22.552;2023-04-06T04:57:48;1.60;80.70
42965;DHT22;28604;51.204;22.552;2023-04-06T05:00:15;1.60;80.70
42965;DHT22;28604;51.204;22.552;2023-04-06T05:02:43;1.60;81.20
42965;DHT22;28604;51.204;22.552;2023-04-06T05:05:14;1.70;80.60
42965;DHT22;28604;51.204;22.552;2023-04-06T05:07:41;1.60;81.40
42965;DHT22;28604;51.204;22.552;2023-04-06T05:10:11;1.70;81.30
42965;DHT22;28604;51.204;22.552;2023-04-06T05:12:47;1.70;80.60
42965;DHT22;28604;51.204;22.552;2023-04-06T05:15:13;1.70;81.60
42965;DHT22;28604;51.204;22.552;2023-04-06T05:17:40;1.60;80.60
42965;DHT22;28604;51.204;22.552;2023-04-06T05:20:08;1.70;81.30
42965;DHT22;28604;51.204;22.552;2023-04-06T05:22:43;1.70;81.90
42965;DHT22;28604;51.204;22.552;2023-04-06T05:25:10;1.70;81.30
42965;DHT22;28604;51.204;22.552;2023-04-06T05:27:37;1.70;81.90
42965;DHT22;28604;51.204;22.552;2023-04-06T05:30:09;1.70;82.80
42965;DHT22;28604;51.204;22.552;2023-04-06T05:32:40;1.70;83.00
42965;DHT22;28604;51.204;22.552;2023-04-06T05:35:07;1.70;83.50
42965;DHT22;28604;51.204;22.552;2023-04-06T05:37:33;1.70;82.40
42965;DHT22;28604;51.204;22.552;2023-04-06T05:40:00;1.80;82.10
42965;DHT22;28604;51.204;22.552;2023-04-06T05:42:27;1.80;81.60
42965;DHT22;28604;51.204;22.552;2023-04-06T05:44:57;1.80;81.90
42965;DHT22;28604;51.204;22.552;2023-04-06T05:47:23;1.80;82.50
42965;DHT22;28604;51.204;22.552;2023-04-06T05:49:57;1.80;82.80
42965;DHT22;28604;51.204;22.552;2023-04-06T05:52:33;1.80;82.60
42965;DHT22;28604;51.204;22.552;2023-04-06T05:54:59;1.80;83.50
42965;DHT22;28604;51.204;22.552;2023-04-06T05:57:25;1.80;82.60
42965;DHT22;28604;51.204;22.552;2023-04-06T05:59:51;1.80;84.20
42965;DHT22;28604;51.204;22.552;2023-04-06T06:02:19;1.80;84.90
42965;DHT22;28604;51.204;22.552;2023-04-06T06:04:49;1.90;84.20
42965;DHT22;28604;51.204;22.552;2023-04-06T06:07:17;1.90;83.40
42965;DHT22;28604;51.204;22.552;2023-04-06T06:09:49;1.90;84.40
42965;DHT22;28604;51.204;22.552;2023-04-06T06:12:20;1.90;83.90
42965;DHT22;28604;51.204;22.552;2023-04-06T06:14:49;1.90;84.50
42965;DHT22;28604;51.204;22.552;2023-04-06T06:17:15;1.90;84.00
42965;DHT22;28604;51.204;22.552;2023-04-06T06:19:45;2.00;83.00
42965;DHT22;28604;51.204;22.552;2023-04-06T06:22:10;2.10;82.60
42965;DHT22;28604;51.204;22.552;2023-04-06T06:24:40;2.00;83.50
42965;DHT22;28604;51.204;22.552;2023-04-06T06:27:07;2.10;83.80
42965;DHT22;28604;51.204;22.552;2023-04-06T06:29:34;2.10;83.40
42965;DHT22;28604;51.204;22.552;2023-04-06T06:32:00;2.20;83.20
42965;DHT22;28604;51.204;22.552;2023-04-06T06:34:26;2.10;83.30
42965;DHT22;28604;51.204;22.552;2023-04-06T06:36:55;2.10;83.50
42965;DHT22;28604;51.204;22.552;2023-04-06T06:39:21;2.10;83.00
42965;DHT22;28604;51.204;22.552;2023-04-06T06:41:49;2.20;83.20
42965;DHT22;28604;51.204;22.552;2023-04-06T06:44:16;2.10;84.20
42965;DHT22;28604;51.204;22.552;2023-04-06T06:46:42;2.10;83.90
42965;DHT22;28604;51.204;22.552;2023-04-06T06:49:08;2.10;84.70
42965;DHT22;28604;51.204;22.552;2023-04-06T06:51:36;2.20;83.40
42965;DHT22;28604;51.204;22.552;2023-04-06T06:54:02;2.10;83.80
42965;DHT22;28604;51.204;22.552;2023-04-06T06:56:28;2.10;83.40
42965;DHT22;28604;51.204;22.552;2023-04-06T06:58:55;2.10;83.70
42965;DHT22;28604;51.204;22.552;2023-04-06T07:01:21;2.20;84.00
42965;DHT22;28604;51.204;22.552;2023-04-06T07:03:47;2.20;83.80
42965;DHT22;28604;51.204;22.552;2023-04-06T07:06:13;2.20;84.90
42965;DHT22;28604;51.204;22.552;2023-04-06T07:08:40;2.10;85.50
42965;DHT22;28604;51.204;22.552;2023-04-06T07:11:06;2.20;84.90
42965;DHT22;28604;51.204;22.552;2023-04-06T07:13:32;2.20;85.40
42965;DHT22;28604;51.204;22.552;2023-04-06T07:16:00;2.10;86.10
42965;DHT22;28604;51.204;22.552;2023-04-06T07:18:27;2.20;84.30
42965;DHT22;28604;51.204;22.552;2023-04-06T07:20:53;2.20;86.10
42965;DHT22;28604;51.204;22.552;2023-04-06T07:23:19;2.20;85.40
42965;DHT22;28604;51.204;22.552;2023-04-06T07:25:45;2.30;84.90
42965;DHT22;28604;51.204;22.552;2023-04-06T07:28:12;2.30;83.40
42965;DHT22;28604;51.204;22.552;2023-04-06T07:30:38;2.20;85.40
42965;DHT22;28604;51.204;22.552;2023-04-06T07:33:05;2.20;85.50
42965;DHT22;28604;51.204;22.552;2023-04-06T07:35:33;2.20;86.30
42965;DHT22;28604;51.204;22.552;2023-04-06T07:38:01;2.10;86.50
42965;DHT22;28604;51.204;22.552;2023-04-06T07:40:27;2.20;85.80
42965;DHT22;28604;51.204;22.552;2023-04-06T07:42:54;2.20;85.90
42965;DHT22;28604;51.204;22.552;2023-04-06T07:45:20;2.20;86.30
42965;DHT22;28604;51.204;22.552;2023-04-06T07:47:46;2.20;85.30
42965;DHT22;28604;51.204;22.552;2023-04-06T07:50:13;2.20;86.40
42965;DHT22;28604;51.204;22.552;2023-04-06T07:52:39;2.20;86.90
42965;DHT22;28604;51.204;22.552;2023-04-06T07:55:06;2.10;87.10
42965;DHT22;28604;51.204;22.552;2023-04-06T07:57:32;2.20;87.40
42965;DHT22;28604;51.204;22.552;2023-04-06T07:59:58;2.10;87.10
42965;DHT22;28604;51.204;22.552;2023-04-06T08:02:24;2.10;87.30
42965;DHT22;28604;51.204;22.552;2023-04-06T08:04:50;2.20;86.50
42965;DHT22;28604;51.204;22.552;2023-04-06T08:07:16;2.20;86.60
42965;DHT22;28604;51.204;22.552;2023-04-06T08:09:42;2.20;86.90
42965;DHT22;28604;51.204;22.552;2023-04-06T08:12:08;2.20;88.70
42965;DHT22;28604;51.204;22.552;2023-04-06T08:14:34;2.20;86.30
42965;DHT22;28604;51.204;22.552;2023-04-06T08:17:00;2.20;86.50
42965;DHT22;28604;51.204;22.552;2023-04-06T08:19:26;2.20;86.70
42965;DHT22;28604;51.204;22.552;2023-04-06T08:21:52;2.20;86.40
42965;DHT22;28604;51.204;22.552;2023-04-06T08:24:18;2.20;87.10
42965;DHT22;28604;51.204;22.552;2023-04-06T08:26:44;2.20;85.90
42965;DHT22;28604;51.204;22.552;2023-04-06T08:29:10;2.30;86.10
42965;DHT22;28604;51.204;22.552;2023-04-06T08:31:37;2.20;89.10
42965;DHT22;28604;51.204;22.552;2023-04-06T08:34:04;2.20;87.90
42965;DHT22;28604;51.204;22.552;2023-04-06T08:36:31;2.20;87.60
42965;DHT22;28604;51.204;22.552;2023-04-06T08:38:57;2.20;86.80
42965;DHT22;28604;51.204;22.552;2023-04-06T08:41:23;2.20;87.20
42965;DHT22;28604;51.204;22.552;2023-04-06T08:43:56;2.30;86.30
42965;DHT22;28604;51.204;22.552;2023-04-06T08:46:23;2.30;87.40
42965;DHT22;28604;51.204;22.552;2023-04-06T08:49:04;2.30;86.40
42965;DHT22;28604;51.204;22.552;2023-04-06T08:51:32;2.30;87.00
42965;DHT22;28604;51.204;22.552;2023-04-06T08:53:59;2.30;87.70
42965;DHT22;28604;51.204;22.552;2023-04-06T08:56:27;2.30;88.00
42965;DHT22;28604;51.204;22.552;2023-04-06T08:58:55;2.30;87.00
42965;DHT22;28604;51.204;22.552;2023-04-06T09:01:24;2.30;88.80
42965;DHT22;28604;51.204;22.552;2023-04-06T09:03:51;2.30;89.60
42965;DHT22;28604;51.204;22.552;2023-04-06T09:06:21;2.30;88.10
42965;DHT22;28604;51.204;22.552;2023-04-06T09:08:46;2.40;87.40
42965;DHT22;28604;51.204;22.552;2023-04-06T09:11:14;2.40;87.70
42965;DHT22;28604;51.204;22.552;2023-04-06T09:13:54;2.50;88.10
42965;DHT22;28604;51.204;22.552;2023-04-06T09:16:20;2.40;87.80
42965;DHT22;28604;51.204;22.552;2023-04-06T09:18:47;2.50;86.90
42965;DHT22;28604;51.204;22.552;2023-04-06T09:21:17;2.50;88.80
42965;DHT22;28604;51.204;22.552;2023-04-06T09:23:43;2.40;88.50
42965;DHT22;28604;51.204;22.552;2023-04-06T09:26:14;2.50;87.70
42965;DHT22;28604;51.204;22.552;2023-04-06T09:28:52;2.50;87.50
42965;DHT22;28604;51.204;22.552;2023-04-06T09:31:27;2.60;87.90
42965;DHT22;28604;51.204;22.552;2023-04-06T09:33:53;2.60;86.80
42965;DHT22;28604;51.204;22.552;2023-04-06T09:36:29;2.60;90.00
42965;DHT22;28604;51.204;22.552;2023-04-06T09:38:58;2.60;89.00
42965;DHT22;28604;51.204;22.552;2023-04-06T09:41:29;2.70;87.40
42965;DHT22;28604;51.204;22.552;2023-04-06T09:44:11;2.70;87.10
42965;DHT22;28604;51.204;22.552;2023-04-06T09:46:42;2.70;87.70
42965;DHT22;28604;51.204;22.552;2023-04-06T09:49:09;2.70;87.90
42965;DHT22;28604;51.204;22.552;2023-04-06T09:51:46;2.60;88.90
42965;DHT22;28604;51.204;22.552;2023-04-06T09:54:18;2.60;89.60
42965;DHT22;28604;51.204;22.552;2023-04-06T09:56:47;2.70;89.00
42965;DHT22;28604;51.204;22.552;2023-04-06T09:59:18;2.60;89.00
42965;DHT22;28604;51.204;22.552;2023-04-06T10:01:48;2.70;89.40
42965;DHT22;28604;51.204;22.552;2023-04-06T10:04:34;2.80;88.80
42965;DHT22;28604;51.204;22.552;2023-04-06T10:07:03;2.80;89.40
42965;DHT22;28604;51.204;22.552;2023-04-06T10:09:31;2.90;89.40
42965;DHT22;28604;51.204;22.552;2023-04-06T10:12:04;2.90;89.60
42965;DHT22;28604;51.204;22.552;2023-04-06T10:14:34;2.90;90.40
42965;DHT22;28604;51.204;22.552;2023-04-06T10:17:04;2.90;90.20
42965;DHT22;28604;51.204;22.552;2023-04-06T10:22:14;2.80;90.50
42965;DHT22;28604;51.204;22.552;2023-04-06T10:24:44;2.70;90.70
42965;DHT22;28604;51.204;22.552;2023-04-06T10:27:10;2.80;90.20
42965;DHT22;28604;51.204;22.552;2023-04-06T10:29:44;2.70;90.10
42965;DHT22;28604;51.204;22.552;2023-04-06T10:32:11;2.80;90.50
42965;DHT22;28604;51.204;22.552;2023-04-06T10:34:36;2.70;90.10
42965;DHT22;28604;51.204;22.552;2023-04-06T10:37:16;2.70;90.60
42965;DHT22;28604;51.204;22.552;2023-04-06T10:39:52;2.80;90.10
42965;DHT22;28604;51.204;22.552;2023-04-06T10:42:24;2.80;90.60
42965;DHT22;28604;51.204;22.552;2023-04-06T10:44:51;2.80;90.70
42965;DHT22;28604;51.204;22.552;2023-04-06T10:47:17;2.80;94.40
42965;DHT22;28604;51.204;22.552;2023-04-06T10:49:44;2.70;95.20
42965;DHT22;28604;51.204;22.552;2023-04-06T10:52:10;2.80;95.40
42965;DHT22;28604;51.204;22.552;2023-04-06T10:54:41;2.80;95.50
42965;DHT22;28604;51.204;22.552;2023-04-06T10:57:08;2.70;95.20
42965;DHT22;28604;51.204;22.552;2023-04-06T10:59:34;2.70;95.40
42965;DHT22;28604;51.204;22.552;2023-04-06T11:02:00;2.80;95.30
42965;DHT22;28604;51.204;22.552;2023-04-06T11:04:26;2.80;94.90
42965;DHT22;28604;51.204;22.552;2023-04-06T11:06:52;2.80;91.20
42965;DHT22;28604;51.204;22.552;2023-04-06T11:09:26;2.90;90.90
42965;DHT22;28604;51.204;22.552;2023-04-06T11:11:53;2.90;91.10
42965;DHT22;28604;51.204;22.552;2023-04-06T11:14:19;2.90;90.90
42965;DHT22;28604;51.204;22.552;2023-04-06T11:16:47;2.90;91.50
42965;DHT22;28604;51.204;22.552;2023-04-06T11:19:16;3.00;91.00
42965;DHT22;28604;51.204;22.552;2023-04-06T11:21:45;2.90;90.90
42965;DHT22;28604;51.204;22.552;2023-04-06T11:24:24;2.90;91.10
42965;DHT22;28604;51.204;22.552;2023-04-06T11:26:57;2.90;90.60
42965;DHT22;28604;51.204;22.552;2023-04-06T11:29:26;2.90;90.60
42965;DHT22;28604;51.204;22.552;2023-04-06T11:31:54;2.90;91.20
42965;DHT22;28604;51.204;22.552;2023-04-06T11:34:24;2.90;91.30
42965;DHT22;28604;51.204;22.552;2023-04-06T11:37:01;2.90;90.80
42965;DHT22;28604;51.204;22.552;2023-04-06T11:39:29;3.00;91.60
42965;DHT22;28604;51.204;22.552;2023-04-06T11:42:01;3.00;90.90
42965;DHT22;28604;51.204;22.552;2023-04-06T11:44:43;3.00;90.70
42965;DHT22;28604;51.204;22.552;2023-04-06T11:47:12;3.00;91.30
42965;DHT22;28604;51.204;22.552;2023-04-06T11:49:41;3.00;91.20
42965;DHT22;28604;51.204;22.552;2023-04-06T11:52:24;3.00;91.20
42965;DHT22;28604;51.204;22.552;2023-04-06T11:54:53;3.00;91.30
42965;DHT22;28604;51.204;22.552;2023-04-06T11:57:21;3.00;91.40
42965;DHT22;28604;51.204;22.552;2023-04-06T11:59:51;3.00;91.20
42965;DHT22;28604;51.204;22.552;2023-04-06T12:02:18;3.00;91.60
42965;DHT22;28604;51.204;22.552;2023-04-06T12:04:45;3.00;91.70
42965;DHT22;28604;51.204;22.552;2023-04-06T12:07:11;3.00;91.70
42965;DHT22;28604;51.204;22.552;2023-04-06T12:09:37;3.00;91.10
42965;DHT22;28604;51.204;22.552;2023-04-06T12:12:03;3.00;91.10
42965;DHT22;28604;51.204;22.552;2023-04-06T12:14:29;3.00;91.10
42965;DHT22;28604;51.204;22.552;2023-04-06T12:16:57;3.00;91.00
42965;DHT22;28604;51.204;22.552;2023-04-06T12:19:23;3.00;90.80
42965;DHT22;28604;51.204;22.552;2023-04-06T12:21:52;3.00;91.50
42965;DHT22;28604;51.204;22.552;2023-04-06T12:24:19;3.10;91.20
42965;DHT22;28604;51.204;22.552;2023-04-06T12:26:45;3.10;90.90
42965;DHT22;28604;51.204;22.552;2023-04-06T12:29:11;3.20;90.20
42965;DHT22;28604;51.204;22.552;2023-04-06T12:31:39;3.10;91.10
42965;DHT22;28604;51.204;22.552;2023-04-06T12:34:06;3.10;91.50
42965;DHT22;28604;51.204;22.552;2023-04-06T12:36:33;3.20;90.60
42965;DHT22;28604;51.204;22.552;2023-04-06T12:38:59;3.20;91.00
42965;DHT22;28604;51.204;22.552;2023-04-06T12:41:27;3.20;90.60
42965;DHT22;28604;51.204;22.552;2023-04-06T12:43:52;3.20;90.80
42965;DHT22;28604;51.204;22.552;2023-04-06T12:46:19;3.20;90.80
42965;DHT22;28604;51.204;22.552;2023-04-06T12:48:45;3.10;91.20
42965;DHT22;28604;51.204;22.552;2023-04-06T12:51:12;3.20;91.10
42965;DHT22;28604;51.204;22.552;2023-04-06T12:53:38;3.10;90.50
42965;DHT22;28604;51.204;22.552;2023-04-06T12:56:15;3.10;90.60
42965;DHT22;28604;51.204;22.552;2023-04-06T12:58:42;3.20;90.60
42965;DHT22;28604;51.204;22.552;2023-04-06T13:01:09;3.20;90.60
42965;DHT22;28604;51.204;22.552;2023-04-06T13:03:35;3.20;90.50
42965;DHT22;28604;51.204;22.552;2023-04-06T13:06:02;3.20;91.10
42965;DHT22;28604;51.204;22.552;2023-04-06T13:08:28;3.20;91.00
42965;DHT22;28604;51.204;22.552;2023-04-06T13:10:54;3.20;91.10
42965;DHT22;28604;51.204;22.552;2023-04-06T13:13:26;3.20;90.90
42965;DHT22;28604;51.204;22.552;2023-04-06T13:15:53;3.20;91.40
42965;DHT22;28604;51.204;22.552;2023-04-06T13:18:21;3.20;91.30
42965;DHT22;28604;51.204;22.552;2023-04-06T13:20:49;3.20;90.80
42965;DHT22;28604;51.204;22.552;2023-04-06T13:23:15;3.20;91.30
42965;DHT22;28604;51.204;22.552;2023-04-06T13:25:41;3.30;90.80
42965;DHT22;28604;51.204;22.552;2023-04-06T13:28:08;3.20;91.80
42965;DHT22;28604;51.204;22.552;2023-04-06T13:30:35;3.30;91.30
42965;DHT22;28604;51.204;22.552;2023-04-06T13:33:02;3.30;91.00
42965;DHT22;28604;51.204;22.552;2023-04-06T13:35:28;3.20;91.70
42965;DHT22;28604;51.204;22.552;2023-04-06T13:37:54;3.30;91.00
42965;DHT22;28604;51.204;22.552;2023-04-06T13:40:20;3.40;90.80
42965;DHT22;28604;51.204;22.552;2023-04-06T13:42:47;3.40;91.00
42965;DHT22;28604;51.204;22.552;2023-04-06T13:45:13;3.40;90.80
42965;DHT22;28604;51.204;22.552;2023-04-06T13:47:39;3.40;90.70
42965;DHT22;28604;51.204;22.552;2023-04-06T13:50:06;3.40;91.20
42965;DHT22;28604;51.204;22.552;2023-04-06T13:52:32;3.40;91.10
42965;DHT22;28604;51.204;22.552;2023-04-06T13:54:58;3.40;91.40
42965;DHT22;28604;51.204;22.552;2023-04-06T13:57:23;3.30;91.70
42965;DHT22;28604;51.204;22.552;2023-04-06T13:59:50;3.40;91.10
42965;DHT22;28604;51.204;22.552;2023-04-06T14:02:16;3.40;91.00
42965;DHT22;28604;51.204;22.552;2023-04-06T14:04:42;3.50;90.70
42965;DHT22;28604;51.204;22.552;2023-04-06T14:07:08;3.50;90.40
42965;DHT22;28604;51.204;22.552;2023-04-06T14:09:34;3.50;90.70
42965;DHT22;28604;51.204;22.552;2023-04-06T14:12:00;3.50;90.20
42965;DHT22;28604;51.204;22.552;2023-04-06T14:14:26;3.50;90.80
42965;DHT22;28604;51.204;22.552;2023-04-06T14:16:52;3.50;90.70
42965;DHT22;28604;51.204;22.552;2023-04-06T14:19:18;3.60;90.70
42965;DHT22;28604;51.204;22.552;2023-04-06T14:21:44;3.50;91.00
42965;DHT22;28604;51.204;22.552;2023-04-06T14:24:11;3.50;90.70
42965;DHT22;28604;51.204;22.552;2023-04-06T14:26:38;3.50;90.70
42965;DHT22;28604;51.204;22.552;2023-04-06T14:29:05;3.60;90.60
42965;DHT22;28604;51.204;22.552;2023-04-06T14:31:31;3.60;90.30
42965;DHT22;28604;51.204;22.552;2023-04-06T14:34:00;3.60;90.50
42965;DHT22;28604;51.204;22.552;2023-04-06T14:36:26;3.60;90.50
42965;DHT22;28604;51.204;22.552;2023-04-06T14:38:57;3.70;90.30
42965;DHT22;28604;51.204;22.552;2023-04-06T14:41:23;3.70;90.40
42965;DHT22;28604;51.204;22.552;2023-04-06T14:43:49;3.70;90.90
42965;DHT22;28604;51.204;22.552;2023-04-06T14:46:18;3.70;90.50
42965;DHT22;28604;51.204;22.552;2023-04-06T14:48:45;3.70;90.20
42965;DHT22;28604;51.204;22.552;2023-04-06T14:51:11;3.70;91.70
42965;DHT22;28604;51.204;22.552;2023-04-06T14:53:37;3.70;91.10
42965;DHT22;28604;51.204;22.552;2023-04-06T14:56:04;3.70;90.60
42965;DHT22;28604;51.204;22.552;2023-04-06T14:58:30;3.70;90.50
42965;DHT22;28604;51.204;22.552;2023-04-06T15:00:57;3.70;91.20
42965;DHT22;28604;51.204;22.552;2023-04-06T15:03:25;3.80;91.00
42965;DHT22;28604;51.204;22.552;2023-04-06T15:05:52;3.70;91.30
42965;DHT22;28604;51.204;22.552;2023-04-06T15:08:18;3.80;91.10
42965;DHT22;28604;51.204;22.552;2023-04-06T15:10:50;3.80;90.90
42965;DHT22;28604;51.204;22.552;2023-04-06T15:13:16;3.80;90.60
42965;DHT22;28604;51.204;22.552;2023-04-06T15:15:43;3.80;91.20
42965;DHT22;28604;51.204;22.552;2023-04-06T15:18:10;3.80;91.40
42965;DHT22;28604;51.204;22.552;2023-04-06T15:20:36;3.80;91.30
42965;DHT22;28604;51.204;22.552;2023-04-06T15:23:03;3.80;91.00
42965;DHT22;28604;51.204;22.552;2023-04-06T15:25:29;3.80;91.20
42965;DHT22;28604;51.204;22.552;2023-04-06T15:27:56;3.80;90.70
42965;DHT22;28604;51.204;22.552;2023-04-06T15:30:22;3.80;90.50
42965;DHT22;28604;51.204;22.552;2023-04-06T15:32:57;3.80;90.90
42965;DHT22;28604;51.204;22.552;2023-04-06T15:35:23;3.90;90.80
42965;DHT22;28604;51.204;22.552;2023-04-06T15:37:49;3.90;90.60
42965;DHT22;28604;51.204;22.552;2023-04-06T15:40:15;3.90;90.70